Time;durP1;ratioP1;P1;durP2;ratioP2;P2;SDS_P1;SDS_P2;PMS_P1;PMS_P2;Temp;Humidity;BMP_temperature;BMP_pressure;BME280_temperature;BME280_humidity;BME280_pressure;Samples;Min_cycle;Max_cycle;Signal;HPM_P1;HPM_P2
2023/05/17 00:04:39;;;;;;;10.63;4.33;;;10.00;99.90;;;;;;10089630;29;20290;-76
2023/05/17 00:10:01;;;;;;;8.37;4.10;;;;;;;;;;10116199;29;20189;-76
2023/05/17 00:15:23;;;;;;;10.93;4.33;;;10.00;99.90;;;;;;10079176;29;20265;-76
2023/05/17 00:20:44;;;;;;;10.03;3.33;;;9.80;99.90;;;;;;10083243;29;20201;-75
2023/05/17 00:26:05;;;;;;;10.83;3.53;;;9.60;99.90;;;;;;10085947;29;20302;-75
2023/05/17 00:31:26;;;;;;;10.97;3.93;;;9.80;99.90;;;;;;10089016;29;20374;-75
2023/05/17 00:36:47;;;;;;;9.20;3.40;;;9.90;99.90;;;;;;10140088;29;20302;-75
2023/05/17 00:42:10;;;;;;;11.00;3.37;;;9.50;99.90;;;;;;10124698;29;20205;-75
2023/05/17 00:47:31;;;;;;;8.77;3.53;;;9.80;99.90;;;;;;10085505;29;20373;-75
2023/05/17 00:52:52;;;;;;;9.97;3.77;;;9.80;99.90;;;;;;10087451;29;20204;-76
2023/05/17 00:58:15;;;;;;;11.70;3.87;;;;;;;;;;10085051;29;20197;-76
2023/05/17 01:03:40;;;;;;;9.87;3.50;;;9.70;99.90;;;;;;10100777;29;20562;-76
2023/05/17 01:09:03;;;;;;;10.50;4.43;;;9.70;99.90;;;;;;10123119;29;20206;-77
2023/05/17 01:14:43;;;;;;;8.73;3.17;;;9.70;99.90;;;;;;10077221;29;20558;-76
2023/05/17 01:20:27;;;;;;;10.00;3.70;;;9.60;99.90;;;;;;10084943;29;20350;-76
2023/05/17 01:26:33;;;;;;;7.67;3.07;;;9.60;99.90;;;;;;10102654;29;20236;-76
2023/05/17 01:31:56;;;;;;;7.93;3.60;;;;;;;;;;10073396;29;20207;-76
2023/05/17 01:37:17;;;;;;;8.97;4.10;;;;;;;;;;10144021;29;20234;-74
2023/05/17 01:42:41;;;;;;;10.20;4.20;;;;;;;;;;10082870;29;20240;-76
2023/05/17 01:48:20;;;;;;;9.23;3.57;;;;;;;;;;10082446;29;20499;-76
2023/05/17 01:53:55;;;;;;;8.33;2.93;;;;;;;;;;10085871;29;20235;-76
2023/05/17 01:59:21;;;;;;;6.93;3.70;;;;;;;;;;10119294;29;20315;-75
2023/05/17 02:04:43;;;;;;;9.67;4.03;;;9.20;99.90;;;;;;10086831;29;20216;-76
2023/05/17 02:10:05;;;;;;;7.30;3.73;;;9.30;99.90;;;;;;10066084;29;20207;-76
2023/05/17 02:15:26;;;;;;;9.43;4.10;;;9.80;99.90;;;;;;10106137;29;20243;-77
2023/05/17 02:20:47;;;;;;;11.57;4.33;;;9.20;99.90;;;;;;10087041;29;20209;-76
2023/05/17 02:26:09;;;;;;;10.80;3.40;;;9.20;99.90;;;;;;10080640;29;20212;-75
2023/05/17 02:31:30;;;;;;;7.37;3.10;;;9.20;99.90;;;;;;10085523;29;20370;-76
2023/05/17 02:36:51;;;;;;;13.37;4.33;;;9.00;99.90;;;;;;10139701;29;20294;-76
2023/05/17 02:42:13;;;;;;;10.00;4.80;;;9.00;99.90;;;;;;10110005;29;20210;-76
2023/05/17 02:47:33;;;;;;;10.33;4.13;;;9.20;99.90;;;;;;10080786;29;20202;-75
2023/05/17 02:52:55;;;;;;;9.60;4.10;;;9.00;99.90;;;;;;10080083;29;20212;-76
2023/05/17 02:58:30;;;;;;;6.87;3.23;;;8.90;99.90;;;;;;10513801;28;20554;-75
2023/05/17 03:03:51;;;;;;;7.33;2.80;;;8.80;99.90;;;;;;10454295;28;20375;-75
2023/05/17 03:09:14;;;;;;;5.80;2.73;;;8.90;99.90;;;;;;10430014;28;20206;-75
2023/05/17 03:14:36;;;;;;;7.47;2.83;;;8.70;99.90;;;;;;10429032;28;20283;-75
2023/05/17 03:19:57;;;;;;;10.17;3.20;;;8.70;99.90;;;;;;10442200;28;20197;-76
2023/05/17 03:25:19;;;;;;;6.53;3.30;;;8.70;99.90;;;;;;10454273;28;20209;-75
2023/05/17 03:30:41;;;;;;;6.07;2.83;;;8.80;99.90;;;;;;10469268;28;20294;-75
2023/05/17 03:36:04;;;;;;;6.90;2.97;;;8.80;99.90;;;;;;10437398;28;20253;-75
2023/05/17 03:41:25;;;;;;;12.60;3.50;;;8.80;99.90;;;;;;10463745;28;20244;-75
2023/05/17 03:46:47;;;;;;;8.63;2.70;;;8.90;99.90;;;;;;10442718;28;20514;-75
2023/05/17 03:52:10;;;;;;;12.53;3.23;;;8.90;99.90;;;;;;10445332;28;20202;-75
2023/05/17 03:57:32;;;;;;;9.70;2.87;;;8.90;99.90;;;;;;10473452;28;20261;-75
2023/05/17 04:02:53;;;;;;;8.03;2.80;;;8.80;99.90;;;;;;10452341;28;20213;-75
2023/05/17 04:08:15;;;;;;;7.03;2.37;;;9.00;99.90;;;;;;10409337;28;20192;-75
2023/05/17 04:13:36;;;;;;;6.77;2.57;;;9.00;99.90;;;;;;10403714;28;20219;-75
2023/05/17 04:18:59;;;;;;;4.30;1.93;;;9.00;99.90;;;;;;10385711;28;20244;-75
2023/05/17 04:24:22;;;;;;;5.83;2.67;;;8.90;99.90;;;;;;10435914;28;20225;-76
2023/05/17 04:29:45;;;;;;;10.07;4.60;;;8.90;99.90;;;;;;10454723;28;20221;-74
2023/05/17 04:35:07;;;;;;;16.43;5.90;;;8.90;99.90;;;;;;10421019;28;20222;-74
2023/05/17 04:40:29;;;;;;;10.20;5.20;;;9.00;99.90;;;;;;10425813;28;20205;-75
2023/05/17 04:45:56;;;;;;;7.40;3.23;;;8.90;99.90;;;;;;10433421;28;20203;-76
2023/05/17 04:51:18;;;;;;;13.83;3.13;;;8.80;99.90;;;;;;10437894;28;20486;-75
2023/05/17 04:56:40;;;;;;;6.43;3.00;;;8.90;99.90;;;;;;10422756;28;20324;-76
2023/05/17 05:02:07;;;;;;;9.43;2.40;;;9.00;99.90;;;;;;10430789;28;20202;-74
2023/05/17 05:07:29;;;;;;;11.10;3.47;;;9.00;99.90;;;;;;10411991;28;20207;-76
2023/05/17 05:12:50;;;;;;;6.90;2.73;;;9.20;99.90;;;;;;10401331;28;20206;-75
2023/05/17 05:18:12;;;;;;;9.50;3.03;;;9.20;99.90;;;;;;10396512;28;20226;-74
2023/05/17 05:23:34;;;;;;;6.30;2.00;;;9.20;99.90;;;;;;10416591;28;20382;-75
2023/05/17 05:28:55;;;;;;;6.60;2.37;;;9.40;99.90;;;;;;10437512;28;20221;-75
2023/05/17 05:34:18;;;;;;;11.73;3.37;;;9.50;99.90;;;;;;10419991;28;20281;-76
2023/05/17 05:39:42;;;;;;;11.60;3.10;;;9.80;99.90;;;;;;10400576;28;20225;-74
2023/05/17 05:45:04;;;;;;;6.53;2.30;;;9.50;99.90;;;;;;10413866;28;20203;-75
2023/05/17 05:50:25;;;;;;;8.60;2.83;;;9.90;99.90;;;;;;10410269;28;20219;-75
2023/05/17 05:55:51;;;;;;;13.10;3.17;;;10.20;99.90;;;;;;10414319;28;20245;-74
2023/05/17 06:01:13;;;;;;;9.43;2.90;;;10.30;99.90;;;;;;10428580;28;20386;-76
2023/05/17 06:06:34;;;;;;;9.70;4.30;;;10.40;99.90;;;;;;10434734;28;20218;-76
2023/05/17 06:11:55;;;;;;;10.40;3.50;;;10.60;99.90;;;;;;10449942;28;20208;-77
2023/05/17 06:17:17;;;;;;;10.20;2.43;;;11.00;99.90;;;;;;10436229;28;20546;-78
2023/05/17 06:22:38;;;;;;;10.97;3.00;;;11.20;99.90;;;;;;10399305;28;20194;-77
2023/05/17 06:28:01;;;;;;;12.13;3.20;;;12.00;99.90;;;;;;10432315;28;20410;-75
2023/05/17 06:33:22;;;;;;;13.02;3.72;;;;;;;;;;10400997;28;20200;-74
2023/05/17 06:38:44;;;;;;;10.27;3.10;;;12.40;99.90;;;;;;10442227;28;20219;-75
2023/05/17 06:44:05;;;;;;;7.53;2.50;;;11.80;99.90;;;;;;10459603;28;20195;-75
2023/05/17 06:49:29;;;;;;;16.17;3.97;;;11.60;99.90;;;;;;10449134;28;20253;-75
2023/05/17 06:54:50;;;;;;;14.00;3.60;;;11.40;99.90;;;;;;10440908;28;20338;-74
2023/05/17 07:00:12;;;;;;;10.80;3.33;;;11.30;99.90;;;;;;10448389;28;20192;-75
2023/05/17 07:05:34;;;;;;;10.50;3.13;;;11.30;99.90;;;;;;10434750;28;20200;-74
2023/05/17 07:10:55;;;;;;;11.10;2.93;;;11.20;99.90;;;;;;10424526;28;20202;-75
2023/05/17 07:16:16;;;;;;;11.03;3.07;;;11.20;99.90;;;;;;10436901;28;20271;-75
2023/05/17 07:21:38;;;;;;;8.05;3.15;;;11.30;99.90;;;;;;10395154;28;20286;-80
2023/05/17 07:26:59;;;;;;;15.00;4.23;;;11.50;99.90;;;;;;10425077;28;20203;-78
2023/05/17 07:32:20;;;;;;;13.73;3.83;;;11.50;99.90;;;;;;10409415;28;20234;-78
2023/05/17 07:37:42;;;;;;;14.20;3.40;;;11.50;99.90;;;;;;10432262;28;20278;-78
2023/05/17 07:43:02;;;;;;;14.63;3.13;;;11.60;99.90;;;;;;10436432;28;20451;-75
2023/05/17 07:48:24;;;;;;;9.80;2.73;;;11.90;99.90;;;;;;10414854;28;20510;-79
2023/05/17 07:53:45;;;;;;;16.73;4.10;;;11.90;99.70;;;;;;10413767;28;20208;-78
2023/05/17 07:59:06;;;;;;;12.00;3.50;;;11.90;99.80;;;;;;10427537;28;20230;-77
2023/05/17 08:04:27;;;;;;;16.23;3.50;;;11.70;99.90;;;;;;10434050;28;20275;-79
2023/05/17 08:09:48;;;;;;;12.40;3.80;;;11.60;99.90;;;;;;10440610;28;20211;-78
2023/05/17 08:15:09;;;;;;;6.03;2.37;;;12.40;91.60;;;;;;10439393;28;20228;-78
2023/05/17 08:20:31;;;;;;;10.87;2.70;;;12.90;91.20;;;;;;10428150;28;20199;-77
2023/05/17 08:25:52;;;;;;;9.80;3.23;;;13.20;93.50;;;;;;10431207;28;20215;-79
2023/05/17 08:31:13;;;;;;;10.18;2.75;;;12.70;78.20;;;;;;10434601;28;20222;-80
2023/05/17 08:36:34;;;;;;;11.47;3.10;;;12.70;73.90;;;;;;10433564;28;20420;-78
2023/05/17 08:41:58;;;;;;;10.20;2.40;;;12.60;74.20;;;;;;10439914;28;20200;-75
2023/05/17 08:47:28;;;;;;;13.40;3.13;;;12.70;93.50;;;;;;10430502;28;20379;-77
2023/05/17 08:52:50;;;;;;;11.30;3.17;;;12.50;1.00;;;;;;10435479;28;20192;-77
2023/05/17 08:58:12;;;;;;;14.48;3.70;;;12.50;1.00;;;;;;10435584;28;20628;-77
2023/05/17 09:03:35;;;;;;;14.30;3.93;;;12.30;1.00;;;;;;10413590;28;20181;-76
2023/05/17 09:09:00;;;;;;;14.63;3.60;;;12.10;99.90;;;;;;10405829;28;20221;-75
2023/05/17 09:14:21;;;;;;;11.30;2.33;;;12.10;16.40;;;;;;10396768;28;20433;-77
2023/05/17 09:19:44;;;;;;;10.17;2.13;;;;;;;;;;10433526;28;20244;-79
2023/05/17 09:25:06;;;;;;;7.97;1.85;;;;;;;;;;10431694;28;20260;-79
2023/05/17 09:30:32;;;;;;;9.35;2.65;;;;;;;;;;10412336;28;20294;-79
2023/05/17 09:35:54;;;;;;;12.95;2.67;;;;;;;;;;10392225;28;20324;-80
2023/05/17 09:41:15;;;;;;;10.80;2.78;;;15.10;61.30;;;;;;10392873;28;20266;-78
2023/05/17 09:46:47;;;;;;;7.32;1.83;;;15.00;99.90;;;;;;10399052;28;20223;-76
2023/05/17 09:52:08;;;;;;;5.30;1.83;;;15.30;99.90;;;;;;10411992;28;20277;-77
2023/05/17 09:57:37;;;;;;;7.32;1.90;;;;;;;;;;10417540;28;20253;-79
2023/05/17 10:03:00;;;;;;;7.57;1.83;;;17.10;99.90;;;;;;10416258;28;20283;-78
2023/05/17 10:08:24;;;;;;;10.07;1.70;;;17.10;99.90;;;;;;10391205;28;20534;-80
2023/05/17 10:14:01;;;;;;;5.70;1.70;;;17.30;99.90;;;;;;10428280;28;20203;-78
2023/05/17 10:19:23;;;;;;;11.48;2.53;;;16.60;99.90;;;;;;10427636;28;20277;-77
2023/05/17 10:24:47;;;;;;;14.82;3.30;;;16.90;99.90;;;;;;10423139;28;20528;-77
2023/05/17 10:30:10;;;;;;;11.32;2.10;;;16.90;99.90;;;;;;10431118;28;20360;-79
2023/05/17 10:35:33;;;;;;;12.02;3.08;;;16.50;99.90;;;;;;10415135;28;20234;-80
2023/05/17 10:40:55;;;;;;;8.98;1.88;;;15.90;99.90;;;;;;10432557;28;20477;-79
2023/05/17 10:46:20;;;;;;;14.15;3.13;;;16.20;99.90;;;;;;10430488;28;20249;-79
2023/05/17 10:51:41;;;;;;;11.60;2.78;;;16.60;99.90;;;;;;10397518;28;20215;-80
2023/05/17 10:57:07;;;;;;;10.02;2.20;;;17.00;99.90;;;;;;10391218;28;20262;-78
2023/05/17 11:02:30;;;;;;;8.85;2.50;;;17.10;99.90;;;;;;10390449;28;20199;-77
2023/05/17 11:08:10;;;;;;;11.85;2.78;;;17.10;99.90;;;;;;10391808;28;20591;-77
2023/05/17 11:13:31;;;;;;;7.97;1.90;;;17.00;99.90;;;;;;10389778;28;20214;-79
2023/05/17 11:18:53;;;;;;;7.40;2.72;;;16.80;99.90;;;;;;10423595;28;20234;-79
2023/05/17 11:24:24;;;;;;;6.55;1.98;;;16.50;99.90;;;;;;10424190;28;20225;-79
2023/05/17 11:29:49;;;;;;;9.60;2.60;;;16.30;99.90;;;;;;10441055;28;20249;-78
2023/05/17 11:35:11;;;;;;;9.20;2.25;;;16.20;99.90;;;;;;10479573;28;20387;-77
2023/05/17 11:40:32;;;;;;;13.77;2.95;;;16.30;99.90;;;;;;10479927;28;20222;-77
2023/05/17 11:45:56;;;;;;;8.60;2.42;;;16.10;99.90;;;;;;10441672;28;20207;-78
2023/05/17 11:51:18;;;;;;;7.18;2.20;;;16.20;99.90;;;;;;10395367;28;20207;-79
2023/05/17 11:56:41;;;;;;;20.60;3.40;;;16.30;99.90;;;;;;10395107;28;20480;-78
2023/05/17 12:02:03;;;;;;;10.57;2.88;;;15.90;99.90;;;;;;10400363;28;20299;-77
2023/05/17 12:07:27;;;;;;;16.83;2.72;;;15.70;99.90;;;;;;10395498;28;20204;-78
2023/05/17 12:12:48;;;;;;;13.13;3.00;;;15.60;99.90;;;;;;10396088;28;20203;-78
2023/05/17 12:18:09;;;;;;;15.13;3.50;;;15.60;99.90;;;;;;10441621;28;20273;-79
2023/05/17 12:23:35;;;;;;;7.70;2.80;;;15.90;99.90;;;;;;10442481;28;20302;-78
2023/05/17 12:28:58;;;;;;;6.72;2.15;;;16.10;99.90;;;;;;10436081;28;20237;-77
2023/05/17 12:34:20;;;;;;;12.82;3.00;;;16.00;99.90;;;;;;10442030;28;20464;-79
2023/05/17 12:39:42;;;;;;;25.23;3.00;;;15.80;99.90;;;;;;10408796;28;20234;-85
2023/05/17 12:45:03;;;;;;;9.93;2.00;;;15.80;99.90;;;;;;10410244;28;20203;-76
2023/05/17 12:50:31;;;;;;;10.20;1.95;;;15.80;99.90;;;;;;10394524;28;20205;-78
2023/05/17 12:55:56;;;;;;;12.52;1.85;;;15.90;99.90;;;;;;10396362;28;20304;-77
2023/05/17 13:01:17;;;;;;;14.23;2.30;;;15.90;99.90;;;;;;10398304;28;20369;-78
2023/05/17 13:06:49;;;;;;;7.90;1.85;;;15.80;99.90;;;;;;10409868;28;20254;-78
2023/05/17 13:12:10;;;;;;;6.78;1.90;;;15.80;99.90;;;;;;10397569;28;20258;-76
2023/05/17 13:17:39;;;;;;;3.92;1.48;;;15.80;99.90;;;;;;10428301;28;20237;-77
2023/05/17 13:23:00;;;;;;;7.75;2.67;;;15.70;99.90;;;;;;10426309;28;20266;-78
2023/05/17 13:28:21;;;;;;;6.70;2.05;;;15.60;99.90;;;;;;10424613;28;20210;-78
2023/05/17 13:33:43;;;;;;;6.38;1.90;;;15.70;99.90;;;;;;10452626;28;20207;-79
2023/05/17 13:39:05;;;;;;;8.52;2.53;;;15.30;99.90;;;;;;10474292;28;20430;-79
2023/05/17 13:44:26;;;;;;;11.20;2.92;;;15.10;99.90;;;;;;10432130;28;20203;-79
2023/05/17 13:49:48;;;;;;;5.05;1.92;;;15.20;99.90;;;;;;10394661;28;20215;-77
2023/05/17 13:55:09;;;;;;;10.35;2.08;;;15.20;99.90;;;;;;10405739;28;20310;-78
2023/05/17 14:00:30;;;;;;;13.45;3.22;;;15.00;99.90;;;;;;10420160;28;20205;-78
2023/05/17 14:05:52;;;;;;;14.27;3.25;;;14.80;99.90;;;;;;10432237;28;20448;-77
2023/05/17 14:11:13;;;;;;;7.38;1.75;;;14.50;99.90;;;;;;10428198;28;20524;-76
2023/05/17 14:16:34;;;;;;;12.73;2.35;;;14.40;99.90;;;;;;10433591;28;20220;-78
2023/05/17 14:21:55;;;;;;;5.90;2.25;;;14.40;99.90;;;;;;10440640;28;20198;-77
2023/05/17 14:27:16;;;;;;;14.00;5.00;;;14.40;99.90;;;;;;10434417;28;20215;-77
2023/05/17 14:32:38;;;;;;;8.30;2.30;;;;;;;;;;10435912;28;20191;-77
2023/05/17 14:38:00;;;;;;;8.73;1.67;;;13.80;99.90;;;;;;10433843;28;20232;-78
2023/05/17 14:43:21;;;;;;;7.45;1.77;;;13.60;99.90;;;;;;10437706;28;20226;-76
2023/05/17 14:48:42;;;;;;;7.65;1.77;;;13.60;99.90;;;;;;10437360;28;20249;-77
2023/05/17 14:54:04;;;;;;;8.32;2.03;;;13.50;99.90;;;;;;10425492;28;20196;-79
2023/05/17 14:59:26;;;;;;;5.63;1.70;;;13.40;99.90;;;;;;10413197;28;20238;-79
2023/05/17 15:04:48;;;;;;;6.97;1.70;;;13.50;99.90;;;;;;10428796;28;20200;-81
2023/05/17 15:10:11;;;;;;;8.48;1.98;;;13.50;99.90;;;;;;10437478;28;20299;-76
2023/05/17 15:15:33;;;;;;;11.60;2.45;;;13.60;99.90;;;;;;10439818;28;20250;-76
2023/05/17 15:20:54;;;;;;;4.70;1.90;;;13.60;99.90;;;;;;10418325;28;20204;-76
2023/05/17 15:26:15;;;;;;;8.65;2.30;;;13.40;99.90;;;;;;10437979;28;20274;-76
2023/05/17 15:31:36;;;;;;;6.40;2.22;;;13.50;99.90;;;;;;10437837;28;20192;-77
2023/05/17 15:36:57;;;;;;;6.78;2.30;;;13.40;99.90;;;;;;10409531;28;20232;-76
2023/05/17 15:42:18;;;;;;;15.68;3.08;;;13.30;99.90;;;;;;10396970;28;20190;-76
2023/05/17 15:47:40;;;;;;;11.68;2.55;;;13.20;99.90;;;;;;10414924;28;20204;-76
2023/05/17 15:53:02;;;;;;;24.00;2.57;;;12.90;99.90;;;;;;10440148;28;20372;-76
2023/05/17 15:58:26;;;;;;;7.20;2.20;;;12.70;99.90;;;;;;10438986;28;20239;-76
2023/05/17 16:03:48;;;;;;;6.32;1.55;;;12.50;99.90;;;;;;10440929;28;20486;-76
2023/05/17 16:09:10;;;;;;;10.60;1.77;;;12.50;99.90;;;;;;10421755;28;20246;-76
2023/05/17 16:14:31;;;;;;;6.75;1.90;;;12.50;99.90;;;;;;10404360;28;20188;-76
2023/05/17 16:19:52;;;;;;;6.23;2.10;;;12.40;99.90;;;;;;10447231;28;20586;-76
2023/05/17 16:25:20;;;;;;;8.40;2.35;;;12.30;99.90;;;;;;10451020;28;20208;-75
2023/05/17 16:30:41;;;;;;;4.70;1.80;;;12.20;99.90;;;;;;10447268;28;20204;-76
2023/05/17 16:36:03;;;;;;;6.93;2.03;;;12.20;99.90;;;;;;10426497;28;20251;-76
2023/05/17 16:41:25;;;;;;;9.05;1.70;;;12.30;99.90;;;;;;10404409;28;20353;-76
2023/05/17 16:46:46;;;;;;;4.97;1.80;;;12.30;99.90;;;;;;10417150;28;20204;-76
2023/05/17 16:52:08;;;;;;;4.93;1.70;;;12.30;99.90;;;;;;10402737;28;20204;-76
2023/05/17 16:57:30;;;;;;;7.18;1.92;;;12.30;99.90;;;;;;10399417;28;20418;-77
2023/05/17 17:02:52;;;;;;;8.60;2.30;;;12.20;99.90;;;;;;10421528;28;20215;-76
2023/05/17 17:08:13;;;;;;;6.37;1.43;;;;;;;;;;10440164;28;20513;-76
2023/05/17 17:13:35;;;;;;;11.30;2.20;;;11.90;99.90;;;;;;10440137;28;20272;-76
2023/05/17 17:18:59;;;;;;;7.37;2.80;;;;;;;;;;10416839;28;20299;-76
2023/05/17 17:24:20;;;;;;;11.63;2.67;;;11.80;99.90;;;;;;10423288;28;20274;-75
2023/05/17 17:29:41;;;;;;;8.10;2.60;;;11.90;99.90;;;;;;10420975;28;20275;-76
2023/05/17 17:35:02;;;;;;;9.33;4.03;;;11.80;99.90;;;;;;10412133;28;20211;-75
2023/05/17 17:40:23;;;;;;;10.87;3.17;;;11.80;99.90;;;;;;10398319;28;20219;-76
2023/05/17 17:45:45;;;;;;;8.47;2.87;;;11.60;99.90;;;;;;10403946;28;20238;-76
2023/05/17 17:51:07;;;;;;;8.77;2.80;;;11.40;99.90;;;;;;10438453;28;20219;-76
2023/05/17 17:56:27;;;;;;;9.67;4.13;;;11.40;99.90;;;;;;10430096;28;20253;-75
2023/05/17 18:01:48;;;;;;;8.67;2.73;;;11.40;99.90;;;;;;10397232;28;20214;-76
2023/05/17 18:07:11;;;;;;;6.80;2.87;;;11.30;99.90;;;;;;10396994;28;20521;-76
2023/05/17 18:12:32;;;;;;;10.80;4.50;;;11.30;1.00;;;;;;10400406;28;20265;-76
2023/05/17 18:17:53;;;;;;;10.13;3.97;;;11.30;1.00;;;;;;10412238;28;20218;-75
2023/05/17 18:23:15;;;;;;;10.73;5.13;;;;;;;;;;10436326;28;20205;-76
2023/05/17 18:28:36;;;;;;;7.53;3.77;;;;;;;;;;10418634;28;20498;-76
2023/05/17 18:34:01;;;;;;;10.60;5.40;;;;;;;;;;10396334;28;20192;-75
2023/05/17 18:39:23;;;;;;;11.90;5.33;;;;;;;;;;10395891;28;20499;-77
2023/05/17 18:44:45;;;;;;;15.43;4.70;;;;;;;;;;10399632;28;20552;-76
2023/05/17 18:50:06;;;;;;;15.97;4.17;;;11.10;1.00;;;;;;10395789;28;20196;-76
2023/05/17 18:55:27;;;;;;;11.53;6.17;;;11.10;1.00;;;;;;10399745;28;20223;-76
2023/05/17 19:00:48;;;;;;;18.00;7.70;;;10.90;1.00;;;;;;10436598;28;20278;-77
2023/05/17 19:06:09;;;;;;;10.50;5.07;;;10.80;1.00;;;;;;10436481;28;20494;-76
2023/05/17 19:11:31;;;;;;;7.77;2.80;;;10.70;1.00;;;;;;10428248;28;20197;-76
2023/05/17 19:16:55;;;;;;;5.57;1.97;;;10.70;1.00;;;;;;10405665;28;20235;-76
2023/05/17 19:22:16;;;;;;;6.90;3.10;;;10.60;1.00;;;;;;10436334;28;20195;-76
2023/05/17 19:27:37;;;;;;;7.37;2.47;;;10.60;1.00;;;;;;10435862;28;20218;-76
2023/05/17 19:32:58;;;;;;;3.30;1.40;;;10.50;1.00;;;;;;10405210;28;20243;-76
2023/05/17 19:38:19;;;;;;;6.07;2.10;;;10.50;1.00;;;;;;10398124;28;20388;-76
2023/05/17 19:43:40;;;;;;;5.07;1.37;;;10.40;1.00;;;;;;10421524;28;20214;-76
2023/05/17 19:49:02;;;;;;;4.20;1.37;;;10.30;1.00;;;;;;10402422;28;20235;-76
2023/05/17 19:54:23;;;;;;;6.60;1.87;;;10.30;1.00;;;;;;10402114;28;20250;-76
2023/05/17 19:59:44;;;;;;;3.20;1.60;;;10.30;1.00;;;;;;10418231;28;20232;-76
2023/05/17 20:05:05;;;;;;;5.87;2.53;;;10.20;1.00;;;;;;10402053;28;20200;-76
2023/05/17 20:10:30;;;;;;;6.87;2.23;;;10.10;1.00;;;;;;10401712;28;20187;-76
2023/05/17 20:15:51;;;;;;;6.27;1.50;;;;;;;;;;10417637;28;20229;-75
2023/05/17 20:21:20;;;;;;;5.10;2.17;;;10.00;1.00;;;;;;10418198;28;20195;-76
2023/05/17 20:26:45;;;;;;;9.07;2.77;;;9.90;1.00;;;;;;10426306;28;20207;-76
2023/05/17 20:32:06;;;;;;;5.67;2.97;;;9.80;1.00;;;;;;10441748;28;20205;-76
2023/05/17 20:37:27;;;;;;;6.27;2.50;;;9.70;1.00;;;;;;10441066;28;20391;-76
2023/05/17 20:42:51;;;;;;;5.17;2.60;;;;;;;;;;10441350;28;20195;-75
2023/05/17 20:48:12;;;;;;;9.03;2.80;;;9.70;99.90;;;;;;10441142;28;20485;-76
2023/05/17 20:53:33;;;;;;;9.93;2.70;;;9.70;1.00;;;;;;10439489;28;20203;-75
2023/05/17 20:58:54;;;;;;;6.67;2.50;;;9.70;1.00;;;;;;10439774;28;20227;-75
2023/05/17 21:04:16;;;;;;;5.43;1.70;;;9.60;1.00;;;;;;10440499;28;20489;-76
2023/05/17 21:09:37;;;;;;;8.97;2.83;;;9.60;1.00;;;;;;10438418;28;20245;-76
2023/05/17 21:14:58;;;;;;;6.90;2.10;;;9.40;99.90;;;;;;10440406;28;20219;-75
2023/05/17 21:20:27;;;;;;;5.93;1.60;;;9.40;99.90;;;;;;10439147;28;20298;-75
2023/05/17 21:25:48;;;;;;;3.83;1.67;;;9.30;99.90;;;;;;10442722;28;20203;-76
2023/05/17 21:31:10;;;;;;;4.57;1.67;;;;;;;;;;10445502;28;20216;-76
2023/05/17 21:36:31;;;;;;;5.97;1.47;;;9.20;99.90;;;;;;10446801;28;20319;-76
2023/05/17 21:41:52;;;;;;;7.80;2.10;;;9.20;99.90;;;;;;10413425;28;20211;-76
2023/05/17 21:47:14;;;;;;;4.20;1.77;;;9.10;99.90;;;;;;10413362;28;20226;-76
2023/05/17 21:52:36;;;;;;;7.07;1.67;;;;;;;;;;10401030;28;20515;-76
2023/05/17 21:57:57;;;;;;;8.10;2.07;;;;;;;;;;10409027;28;20441;-76
2023/05/17 22:03:19;;;;;;;10.70;2.00;;;;;;;;;;10436849;28;20197;-76
2023/05/17 22:08:41;;;;;;;7.13;1.67;;;;;;;;;;10435941;28;20195;-76
2023/05/17 22:14:03;;;;;;;6.90;2.20;;;;;;;;;;10437699;28;20194;-76
2023/05/17 22:19:25;;;;;;;10.27;2.57;;;;;;;;;;10436634;28;20243;-76
2023/05/17 22:24:47;;;;;;;4.43;1.83;;;;;;;;;;10403635;28;20205;-76
2023/05/17 22:30:09;;;;;;;5.77;2.23;;;;;;;;;;10437582;28;20195;-75
2023/05/17 22:35:30;;;;;;;6.80;2.23;;;;;;;;;;10435354;28;20212;-76
2023/05/17 22:40:51;;;;;;;7.80;2.47;;;;;;;;;;10394808;28;20411;-75
2023/05/17 22:46:14;;;;;;;2.83;1.50;;;;;;;;;;10396112;28;20425;-76
2023/05/17 22:51:37;;;;;;;10.13;2.20;;;;;;;;;;10397993;28;20202;-75
2023/05/17 22:56:59;;;;;;;6.27;2.40;;;;;;;;;;10395486;28;20235;-75
2023/05/17 23:02:21;;;;;;;5.03;2.23;;;;;;;;;;10395705;28;20269;-76
2023/05/17 23:07:43;;;;;;;5.97;1.70;;;;;;;;;;10398575;28;20240;-76
2023/05/17 23:13:05;;;;;;;5.77;2.13;;;;;;;;;;10415252;28;20242;-76
2023/05/17 23:18:26;;;;;;;8.93;2.20;;;8.20;99.90;;;;;;10423887;28;20214;-76
2023/05/17 23:23:48;;;;;;;6.63;1.83;;;8.20;99.90;;;;;;10421936;28;20199;-76
2023/05/17 23:29:09;;;;;;;7.03;1.87;;;8.10;99.90;;;;;;10457473;28;20260;-76
2023/05/17 23:34:30;;;;;;;5.37;2.07;;;8.00;99.90;;;;;;10443495;28;20271;-76
2023/05/17 23:39:51;;;;;;;8.27;2.27;;;8.00;99.90;;;;;;10442253;28;20276;-75
2023/05/17 23:45:12;;;;;;;6.30;1.80;;;7.90;99.90;;;;;;10443967;28;20509;-76
2023/05/17 23:50:33;;;;;;;4.70;1.77;;;7.90;99.90;;;;;;10443510;28;20216;-75
2023/05/17 23:55:55;;;;;;;5.37;2.17;;;7.80;99.90;;;;;;10404068;28;20238;-76
